createdAt,value
2019-02-24T00:00:09.519Z,14.90
2019-02-24T00:02:40.249Z,14.95
2019-02-24T00:05:09.700Z,14.40
2019-02-24T00:07:38.820Z,15.38
2019-02-24T00:10:08.190Z,15.88
2019-02-24T00:12:37.307Z,15.70
2019-02-24T00:15:08.266Z,14.75
2019-02-24T00:17:37.385Z,14.87
2019-02-24T00:20:07.472Z,15.10
2019-02-24T00:22:36.592Z,13.98
2019-02-24T00:25:05.767Z,14.90
2019-02-24T00:27:34.899Z,16.95
2019-02-24T00:30:06.422Z,17.57
2019-02-24T00:32:35.543Z,15.35
2019-02-24T00:35:05.592Z,14.25
2019-02-24T00:37:34.713Z,15.55
2019-02-24T00:40:05.270Z,20.40
2019-02-24T00:42:34.656Z,15.23
2019-02-24T00:45:04.405Z,14.93
2019-02-24T00:47:33.592Z,15.70
2019-02-24T00:50:02.950Z,15.98
2019-02-24T00:52:33.035Z,16.17
2019-02-24T00:55:02.148Z,18.02
2019-02-24T00:57:31.264Z,17.17
2019-02-24T01:00:00.381Z,17.77
2019-02-24T01:02:29.507Z,17.30
2019-02-24T01:04:58.627Z,17.77
2019-02-24T01:07:27.751Z,18.52
2019-02-24T01:09:56.902Z,16.32
2019-02-24T01:12:26.025Z,15.20
2019-02-24T01:14:55.145Z,15.30
2019-02-24T01:17:25.240Z,16.50
2019-02-24T01:19:54.362Z,17.57
2019-02-24T01:22:23.489Z,17.65
2019-02-24T01:24:52.602Z,15.58
2019-02-24T01:27:21.724Z,15.83
2019-02-24T01:29:50.845Z,15.68
2019-02-24T01:32:19.972Z,15.15
2019-02-24T01:34:49.354Z,15.63
2019-02-24T01:37:18.770Z,21.73
2019-02-24T01:39:47.886Z,15.75
2019-02-24T01:42:17.023Z,15.72
2019-02-24T01:44:46.455Z,14.18
2019-02-24T01:47:15.572Z,13.25
2019-02-24T01:49:44.686Z,13.95
2019-02-24T01:52:14.054Z,13.80
2019-02-24T01:54:44.142Z,14.63
2019-02-24T01:57:13.273Z,12.98
2019-02-24T01:59:42.389Z,16.17
2019-02-24T02:02:11.504Z,13.15
2019-02-24T02:04:40.619Z,15.32
2019-02-24T02:07:09.738Z,16.02
2019-02-24T02:09:38.858Z,17.02
2019-02-24T02:12:11.181Z,15.98
2019-02-24T02:14:40.348Z,16.65
2019-02-24T02:17:09.420Z,16.55
2019-02-24T02:19:39.509Z,16.42
2019-02-24T02:22:08.620Z,17.67
2019-02-24T02:24:38.051Z,14.93
2019-02-24T02:27:07.441Z,16.70
2019-02-24T02:29:37.062Z,14.20
2019-02-24T02:32:06.181Z,16.57
2019-02-24T02:34:35.297Z,15.60
2019-02-24T02:37:04.416Z,15.08
2019-02-24T02:39:33.536Z,14.28
2019-02-24T02:42:03.043Z,16.15
2019-02-24T02:44:32.174Z,18.32
2019-02-24T02:47:02.269Z,15.50
2019-02-24T02:49:31.387Z,15.95
2019-02-24T02:52:00.507Z,14.58
2019-02-24T02:54:29.686Z,17.65
2019-02-24T02:56:58.825Z,18.20
2019-02-24T02:59:27.948Z,16.42
2019-02-24T03:01:58.112Z,15.18
2019-02-24T03:04:27.235Z,13.30
2019-02-24T03:07:13.938Z,13.85
2019-02-24T03:09:43.064Z,14.47
2019-02-24T03:12:12.484Z,16.35
2019-02-24T03:14:41.610Z,16.60
2019-02-24T03:17:10.732Z,16.62
2019-02-24T03:19:39.860Z,17.77
2019-02-24T03:22:08.985Z,14.58
2019-02-24T03:24:38.199Z,13.90
2019-02-24T03:27:07.314Z,14.10
2019-02-24T03:29:36.438Z,15.15
2019-02-24T03:32:05.599Z,14.83
2019-02-24T03:34:34.703Z,12.60
2019-02-24T03:37:03.844Z,11.97
2019-02-24T03:39:33.307Z,12.88
2019-02-24T03:42:02.431Z,13.68
2019-02-24T03:44:31.556Z,15.10
2019-02-24T03:47:00.680Z,15.70
2019-02-24T03:49:29.795Z,12.68
2019-02-24T03:51:59.249Z,11.75
2019-02-24T03:54:28.479Z,14.20
2019-02-24T03:56:57.617Z,13.05
2019-02-24T03:59:26.769Z,12.82
2019-02-24T04:01:55.946Z,13.10
2019-02-24T04:04:25.067Z,12.55
2019-02-24T04:06:54.412Z,12.55
2019-02-24T04:09:24.607Z,13.75
2019-02-24T04:11:53.724Z,13.08
2019-02-24T04:14:23.167Z,12.63
2019-02-24T04:16:52.288Z,12.75
2019-02-24T04:19:21.402Z,12.23
2019-02-24T04:21:50.529Z,15.30
2019-02-24T04:24:19.657Z,11.38
2019-02-24T04:26:48.774Z,12.28
2019-02-24T04:29:24.535Z,14.18
2019-02-24T04:31:48.742Z,13.50
2019-02-24T04:34:17.862Z,13.38
2019-02-24T04:36:46.984Z,11.80
2019-02-24T04:39:16.112Z,12.40
2019-02-24T04:41:45.237Z,13.90
2019-02-24T04:44:15.418Z,13.43
2019-02-24T04:46:44.533Z,13.30
2019-02-24T04:49:13.651Z,10.95
2019-02-24T04:51:43.003Z,12.10
2019-02-24T04:54:12.118Z,11.22
2019-02-24T04:56:41.247Z,11.80
2019-02-24T04:59:10.363Z,12.33
2019-02-24T05:01:39.484Z,15.43
2019-02-24T05:04:08.604Z,13.80
2019-02-24T05:06:37.729Z,13.70
2019-02-24T05:09:06.848Z,11.83
2019-02-24T05:11:35.979Z,13.25
2019-02-24T05:14:05.095Z,12.68
2019-02-24T05:16:34.222Z,12.03
2019-02-24T05:19:03.671Z,13.20
2019-02-24T05:21:32.799Z,13.75
2019-02-24T05:24:01.911Z,15.53
2019-02-24T05:26:31.033Z,16.23
2019-02-24T05:29:00.180Z,14.65
2019-02-24T05:31:29.569Z,23.10
2019-02-24T05:33:59.995Z,17.32
2019-02-24T05:36:31.311Z,18.27
2019-02-24T05:39:00.902Z,15.68
2019-02-24T05:41:31.648Z,15.28
2019-02-24T05:44:00.774Z,15.43
2019-02-24T05:46:29.911Z,14.45
2019-02-24T05:48:59.030Z,14.53
2019-02-24T05:51:28.156Z,12.55
2019-02-24T05:53:57.575Z,15.50
2019-02-24T05:56:26.700Z,11.60
2019-02-24T05:58:55.820Z,12.33
2019-02-24T06:01:24.958Z,13.72
2019-02-24T06:03:54.081Z,12.15
2019-02-24T06:06:23.280Z,12.05
2019-02-24T06:08:52.411Z,13.53
2019-02-24T06:11:21.541Z,13.75
2019-02-24T06:13:52.164Z,12.73
2019-02-24T06:16:21.452Z,11.25
2019-02-24T06:18:50.900Z,11.60
2019-02-24T06:21:20.110Z,12.30
2019-02-24T06:23:49.252Z,15.13
2019-02-24T06:26:18.373Z,13.55
2019-02-24T06:28:47.479Z,11.38
2019-02-24T06:31:17.050Z,12.78
2019-02-24T06:33:46.614Z,13.60
2019-02-24T06:36:15.938Z,13.58
2019-02-24T06:38:45.266Z,14.33
2019-02-24T06:41:14.593Z,12.88
2019-02-24T06:43:43.924Z,13.20
2019-02-24T06:46:13.485Z,13.70
2019-02-24T06:48:43.128Z,14.90
2019-02-24T06:51:12.621Z,16.35
2019-02-24T06:53:41.955Z,15.60
2019-02-24T06:56:11.283Z,19.75
2019-02-24T06:58:40.947Z,21.87
2019-02-24T07:01:10.279Z,18.02
2019-02-24T07:03:39.752Z,20.00
2019-02-24T07:06:09.082Z,24.20
2019-02-24T07:08:38.423Z,21.73
2019-02-24T07:11:07.795Z,20.12
2019-02-24T07:13:37.431Z,27.25
2019-02-24T07:16:07.090Z,25.45
2019-02-24T07:18:36.710Z,19.35
2019-02-24T07:21:06.046Z,21.23
2019-02-24T07:23:35.395Z,18.30
2019-02-24T07:26:04.738Z,23.18
2019-02-24T07:28:34.082Z,27.27
2019-02-24T07:31:03.414Z,22.20
2019-02-24T07:33:32.774Z,23.10
2019-02-24T07:36:02.101Z,20.52
2019-02-24T07:38:31.523Z,14.50
2019-02-24T07:41:00.851Z,14.43
2019-02-24T07:43:30.360Z,15.55
2019-02-24T07:46:00.026Z,11.30
2019-02-24T07:48:29.666Z,14.60
2019-02-24T07:50:59.968Z,13.98
2019-02-24T07:53:29.543Z,13.05
2019-02-24T07:55:58.889Z,12.07
2019-02-24T07:58:28.302Z,11.03
2019-02-24T08:00:57.663Z,13.55
2019-02-24T08:03:27.223Z,13.30
2019-02-24T08:05:56.554Z,12.18
2019-02-24T08:08:25.885Z,10.55
2019-02-24T08:10:55.225Z,11.40
2019-02-24T08:13:24.614Z,11.30
2019-02-24T08:15:54.202Z,15.98
2019-02-24T08:18:23.808Z,14.63
2019-02-24T08:20:53.409Z,17.32
2019-02-24T08:23:22.941Z,12.98
2019-02-24T08:25:52.343Z,13.85
2019-02-24T08:28:21.905Z,12.13
2019-02-24T08:30:51.237Z,13.13
2019-02-24T08:33:20.799Z,12.18
2019-02-24T08:35:50.363Z,11.45
2019-02-24T08:38:19.695Z,11.08
2019-02-24T08:40:49.026Z,12.70
2019-02-24T08:43:18.352Z,10.68
2019-02-24T08:45:47.691Z,14.05
2019-02-24T08:48:19.101Z,11.35
2019-02-24T08:50:48.342Z,14.65
2019-02-24T08:53:17.686Z,10.72
2019-02-24T08:55:47.027Z,12.00
2019-02-24T08:58:16.358Z,10.35
2019-02-24T09:00:50.980Z,11.43
2019-02-24T09:03:16.716Z,10.72
2019-02-24T09:05:46.304Z,11.57
2019-02-24T09:08:15.636Z,12.30
2019-02-24T09:10:45.210Z,17.25
2019-02-24T09:13:14.538Z,12.90
2019-02-24T09:15:44.136Z,14.47
2019-02-24T09:18:13.469Z,12.13
2019-02-24T09:20:42.804Z,11.55
2019-02-24T09:23:12.129Z,13.10
2019-02-24T09:25:41.468Z,16.32
2019-02-24T09:28:10.796Z,13.53
2019-02-24T09:30:41.721Z,13.78
2019-02-24T09:33:11.078Z,12.78
2019-02-24T09:35:40.427Z,12.63
2019-02-24T09:38:09.804Z,13.28
2019-02-24T09:40:39.134Z,12.73
2019-02-24T09:43:08.470Z,14.70
2019-02-24T09:45:37.809Z,16.75
2019-02-24T09:48:07.133Z,17.00
2019-02-24T09:50:36.462Z,12.75
2019-02-24T09:53:06.059Z,12.37
2019-02-24T09:55:35.391Z,11.33
2019-02-24T09:58:04.975Z,13.10
2019-02-24T10:00:34.299Z,9.98
2019-02-24T10:03:03.617Z,8.75
2019-02-24T10:05:32.947Z,10.58
2019-02-24T10:08:02.637Z,8.55
2019-02-24T10:10:31.955Z,8.85
2019-02-24T10:13:01.280Z,8.40
2019-02-24T10:15:30.952Z,11.28
2019-02-24T10:18:00.284Z,15.93
2019-02-24T10:20:29.611Z,10.20
2019-02-24T10:22:58.956Z,10.63
2019-02-24T10:25:28.568Z,12.63
2019-02-24T10:27:58.163Z,11.50
2019-02-24T10:30:27.485Z,13.40
2019-02-24T10:32:56.815Z,14.30
2019-02-24T10:35:26.151Z,10.30
2019-02-24T10:37:55.724Z,13.53
2019-02-24T10:40:25.049Z,10.13
2019-02-24T10:42:54.452Z,13.72
2019-02-24T10:45:23.774Z,12.15
2019-02-24T10:47:53.118Z,11.18
2019-02-24T10:50:22.439Z,11.03
2019-02-24T10:52:52.025Z,8.70
2019-02-24T10:55:21.343Z,10.48
2019-02-24T10:57:51.145Z,9.20
2019-02-24T11:00:22.727Z,9.05
2019-02-24T11:02:52.130Z,8.95
2019-02-24T11:05:21.454Z,7.78
2019-02-24T11:07:50.865Z,10.82
2019-02-24T11:10:20.196Z,9.65
2019-02-24T11:12:49.761Z,8.70
2019-02-24T11:15:19.381Z,6.87
2019-02-24T11:17:48.723Z,9.43
2019-02-24T11:20:18.690Z,9.83
2019-02-24T11:22:48.282Z,5.92
2019-02-24T11:25:17.610Z,8.03
2019-02-24T11:27:46.962Z,7.03
2019-02-24T11:30:16.390Z,8.58
2019-02-24T11:32:45.689Z,6.55
2019-02-24T11:35:15.255Z,5.67
2019-02-24T11:37:44.581Z,6.60
2019-02-24T11:40:15.907Z,7.25
2019-02-24T11:42:45.541Z,7.40
2019-02-24T11:45:15.118Z,9.95
2019-02-24T11:47:44.676Z,6.45
2019-02-24T11:50:14.279Z,9.33
2019-02-24T11:52:43.853Z,11.48
2019-02-24T11:55:13.356Z,7.45
2019-02-24T11:57:42.682Z,6.60
2019-02-24T12:00:14.451Z,10.45
2019-02-24T12:02:43.862Z,8.15
2019-02-24T12:05:13.331Z,11.78
2019-02-24T12:07:42.910Z,8.78
2019-02-24T12:10:12.976Z,9.58
2019-02-24T12:12:42.354Z,9.58
2019-02-24T12:15:12.834Z,6.37
2019-02-24T12:17:43.234Z,10.63
2019-02-24T12:20:14.578Z,10.18
2019-02-24T12:22:43.919Z,9.60
2019-02-24T12:25:15.039Z,9.38
2019-02-24T12:27:44.354Z,12.07
2019-02-24T12:30:17.427Z,10.08
2019-02-24T12:32:46.987Z,10.43
2019-02-24T12:35:16.396Z,12.88
2019-02-24T12:37:46.038Z,11.03
2019-02-24T12:40:16.171Z,10.43
2019-02-24T12:42:45.749Z,11.83
2019-02-24T12:45:15.085Z,10.85
2019-02-24T12:47:44.639Z,9.98
2019-02-24T12:50:15.614Z,14.75
2019-02-24T12:52:44.953Z,11.70
2019-02-24T12:55:14.356Z,11.43
2019-02-24T12:57:44.055Z,14.05
2019-02-24T13:00:19.057Z,10.32
2019-02-24T13:02:48.454Z,11.88
2019-02-24T13:05:17.788Z,11.83
2019-02-24T13:07:47.109Z,12.35
2019-02-24T13:10:18.465Z,12.45
2019-02-24T13:12:47.788Z,12.88
2019-02-24T13:15:17.121Z,11.65
2019-02-24T13:17:46.451Z,15.05
2019-02-24T13:20:16.028Z,12.07
2019-02-24T13:22:45.356Z,10.88
2019-02-24T13:25:15.053Z,11.73
2019-02-24T13:27:44.378Z,10.63
2019-02-24T13:30:15.795Z,11.08
2019-02-24T13:32:45.369Z,10.15
2019-02-24T13:35:14.697Z,10.55
2019-02-24T13:37:45.099Z,12.63
2019-02-24T13:40:15.668Z,16.32
2019-02-24T13:42:45.042Z,12.40
2019-02-24T13:45:19.629Z,11.10
2019-02-24T13:47:48.957Z,11.95
2019-02-24T13:50:18.287Z,8.55
2019-02-24T13:52:47.616Z,9.55
2019-02-24T13:55:16.938Z,11.93
2019-02-24T13:57:46.496Z,9.50
2019-02-24T14:00:18.301Z,8.85
2019-02-24T14:02:47.642Z,8.30
2019-02-24T14:05:16.970Z,10.98
2019-02-24T14:07:46.295Z,8.95
2019-02-24T14:10:18.132Z,9.83
2019-02-24T14:12:47.465Z,9.03
2019-02-24T14:15:16.956Z,10.18
2019-02-24T14:17:46.532Z,9.08
2019-02-24T14:20:17.195Z,11.03
2019-02-24T14:22:46.516Z,8.10
2019-02-24T14:25:16.783Z,7.00
2019-02-24T14:27:46.116Z,8.50
2019-02-24T14:30:17.512Z,7.45
2019-02-24T14:32:46.852Z,7.78
2019-02-24T14:35:18.651Z,6.92
2019-02-24T14:37:47.981Z,5.78
2019-02-24T14:40:17.380Z,7.15
2019-02-24T14:42:46.785Z,8.63
2019-02-24T14:45:17.857Z,5.03
2019-02-24T14:47:47.187Z,4.97
2019-02-24T14:50:16.507Z,6.62
2019-02-24T14:52:46.074Z,5.67
2019-02-24T14:55:16.246Z,5.53
2019-02-24T14:57:45.804Z,6.67
2019-02-24T15:00:20.263Z,6.47
2019-02-24T15:02:49.891Z,6.78
2019-02-24T15:05:19.217Z,5.03
2019-02-24T15:07:48.558Z,6.30
2019-02-24T15:10:22.010Z,6.28
2019-02-24T15:12:51.564Z,6.30
2019-02-24T15:15:26.426Z,5.65
2019-02-24T15:17:56.654Z,6.45
2019-02-24T15:20:25.554Z,6.33
2019-02-24T15:22:54.886Z,4.87
2019-02-24T15:25:24.441Z,5.12
2019-02-24T15:27:54.019Z,4.30
2019-02-24T15:30:28.940Z,5.37
2019-02-24T15:32:58.271Z,4.65
2019-02-24T15:35:27.898Z,5.78
2019-02-24T15:37:57.396Z,4.62
2019-02-24T15:40:26.810Z,5.30
2019-02-24T15:42:56.444Z,6.40
2019-02-24T15:45:25.774Z,5.62
2019-02-24T15:47:55.126Z,4.35
2019-02-24T15:50:24.461Z,5.72
2019-02-24T15:52:53.818Z,4.50
2019-02-24T15:55:23.127Z,6.75
2019-02-24T15:57:52.702Z,7.83
2019-02-24T16:00:24.007Z,4.03
2019-02-24T16:03:01.181Z,4.87
2019-02-24T16:05:24.657Z,8.43
2019-02-24T16:07:54.261Z,6.42
2019-02-24T16:10:23.767Z,7.10
2019-02-24T16:12:53.659Z,10.40
2019-02-24T16:15:27.485Z,6.92
2019-02-24T16:17:56.887Z,7.87
2019-02-24T16:20:28.555Z,9.55
2019-02-24T16:22:57.951Z,10.98
2019-02-24T16:25:27.537Z,7.85
2019-02-24T16:27:56.936Z,8.23
2019-02-24T16:30:26.283Z,11.88
2019-02-24T16:32:55.687Z,12.23
2019-02-24T16:35:25.035Z,11.48
2019-02-24T16:37:54.424Z,8.18
2019-02-24T16:40:29.005Z,8.83
2019-02-24T16:42:58.414Z,10.50
2019-02-24T16:45:27.751Z,10.20
2019-02-24T16:47:57.151Z,12.53
2019-02-24T16:50:26.555Z,9.85
2019-02-24T16:52:55.887Z,12.25
2019-02-24T16:55:25.230Z,12.88
2019-02-24T16:57:54.561Z,9.03
2019-02-24T17:00:29.186Z,9.38
2019-02-24T17:02:58.567Z,11.33
2019-02-24T17:05:28.130Z,10.58
2019-02-24T17:07:57.672Z,10.13
2019-02-24T17:10:28.347Z,9.48
2019-02-24T17:12:57.838Z,8.83
2019-02-24T17:15:27.421Z,11.93
2019-02-24T17:17:56.970Z,9.20
2019-02-24T17:20:30.450Z,11.73
2019-02-24T17:23:00.024Z,10.95
2019-02-24T17:25:29.358Z,9.78
2019-02-24T17:27:58.679Z,8.70
2019-02-24T17:30:28.979Z,10.45
2019-02-24T17:32:58.311Z,10.38
2019-02-24T17:35:27.649Z,11.45
2019-02-24T17:37:56.983Z,13.08
2019-02-24T17:40:26.317Z,13.35
2019-02-24T17:42:55.646Z,12.07
2019-02-24T17:45:24.978Z,12.95
2019-02-24T17:47:54.314Z,12.25
2019-02-24T17:50:23.651Z,11.70
2019-02-24T17:52:53.011Z,15.18
2019-02-24T17:55:22.810Z,12.28
2019-02-24T17:57:52.444Z,11.53
2019-02-24T18:00:43.127Z,17.07
2019-02-24T18:03:12.670Z,11.75
2019-02-24T18:05:42.063Z,10.75
2019-02-24T18:08:11.401Z,11.43
2019-02-24T18:10:40.743Z,13.58
2019-02-24T18:13:10.075Z,12.13
2019-02-24T18:15:39.727Z,18.82
2019-02-24T18:18:09.058Z,14.13
2019-02-24T18:20:39.371Z,23.32
2019-02-24T18:23:10.005Z,18.75
2019-02-24T18:25:40.314Z,23.32
2019-02-24T18:28:09.642Z,17.62
2019-02-24T18:30:39.288Z,16.75
2019-02-24T18:33:08.621Z,16.62
2019-02-24T18:35:37.957Z,15.30
2019-02-24T18:38:07.538Z,15.68
2019-02-24T18:40:36.879Z,14.55
2019-02-24T18:43:06.215Z,14.90
2019-02-24T18:45:35.781Z,13.85
2019-02-24T18:48:05.116Z,12.00
2019-02-24T18:50:34.689Z,11.85
2019-02-24T18:53:04.033Z,12.65
2019-02-24T18:55:33.433Z,15.13
2019-02-24T18:58:02.765Z,11.12
2019-02-24T19:00:32.667Z,10.35
2019-02-24T19:03:02.155Z,12.85
2019-02-24T19:05:31.491Z,17.73
2019-02-24T19:08:00.827Z,18.20
2019-02-24T19:10:30.159Z,12.35
2019-02-24T19:12:59.494Z,13.60
2019-02-24T19:15:29.795Z,16.65
2019-02-24T19:17:59.136Z,15.38
2019-02-24T19:20:28.506Z,16.87
2019-02-24T19:22:57.857Z,17.00
2019-02-24T19:25:27.188Z,20.37
2019-02-24T19:27:56.514Z,15.95
2019-02-24T19:30:25.836Z,16.77
2019-02-24T19:32:55.238Z,17.98
2019-02-24T19:35:24.566Z,17.82
2019-02-24T19:37:53.900Z,16.35
2019-02-24T19:40:23.295Z,16.30
2019-02-24T19:42:52.676Z,16.07
2019-02-24T19:45:26.653Z,17.45
2019-02-24T19:47:56.234Z,17.15
2019-02-24T19:50:25.659Z,17.77
2019-02-24T19:52:55.233Z,22.22
2019-02-24T19:55:24.805Z,17.42
2019-02-24T19:57:54.144Z,19.27
2019-02-24T20:00:24.706Z,22.35
2019-02-24T20:02:54.114Z,15.32
2019-02-24T20:05:23.512Z,14.90
2019-02-24T20:07:54.746Z,18.10
2019-02-24T20:10:27.798Z,15.85
2019-02-24T20:12:57.208Z,25.57
2019-02-24T20:15:26.958Z,16.50
2019-02-24T20:17:56.288Z,19.27
2019-02-24T20:20:25.974Z,19.60
2019-02-24T20:22:55.302Z,24.35
2019-02-24T20:25:24.751Z,18.30
2019-02-24T20:27:54.036Z,17.07
2019-02-24T20:30:30.818Z,14.80
2019-02-24T20:33:00.144Z,18.07
2019-02-24T20:35:29.479Z,20.32
2019-02-24T20:37:59.161Z,17.20
2019-02-24T20:40:28.593Z,20.85
2019-02-24T20:42:57.927Z,18.90
2019-02-24T20:45:29.198Z,15.60
2019-02-24T20:47:58.615Z,18.27
2019-02-24T20:50:30.433Z,20.52
2019-02-24T20:52:59.804Z,21.05
2019-02-24T20:55:29.138Z,19.40
2019-02-24T20:57:58.504Z,18.37
2019-02-24T21:00:33.436Z,18.85
2019-02-24T21:03:02.994Z,16.80
2019-02-24T21:05:32.334Z,17.85
2019-02-24T21:08:01.670Z,20.50
2019-02-24T21:10:31.073Z,20.48
2019-02-24T21:13:00.742Z,19.77
2019-02-24T21:15:30.306Z,18.92
2019-02-24T21:17:59.638Z,18.15
2019-02-24T21:20:33.564Z,17.27
2019-02-24T21:23:02.983Z,20.17
2019-02-24T21:25:32.323Z,18.35
2019-02-24T21:28:01.726Z,19.25
2019-02-24T21:30:31.841Z,16.32
2019-02-24T21:33:01.268Z,20.37
2019-02-24T21:35:31.584Z,18.92
2019-02-24T21:38:00.941Z,17.55
2019-02-24T21:40:31.384Z,22.58
2019-02-24T21:43:00.779Z,17.30
2019-02-24T21:45:30.986Z,20.32
2019-02-24T21:48:00.319Z,22.37
2019-02-24T21:50:29.719Z,21.68
2019-02-24T21:52:59.303Z,18.60
2019-02-24T21:55:28.662Z,18.80
2019-02-24T21:57:57.990Z,18.17
2019-02-24T22:00:27.636Z,16.30
2019-02-24T22:02:57.214Z,18.42
2019-02-24T22:05:26.596Z,22.07
2019-02-24T22:07:55.979Z,19.45
2019-02-24T22:10:25.270Z,17.67
2019-02-24T22:12:54.598Z,20.17
2019-02-24T22:15:25.805Z,19.23
2019-02-24T22:17:55.138Z,15.38
2019-02-24T22:20:24.472Z,19.60
2019-02-24T22:22:53.823Z,22.05
2019-02-24T22:25:23.164Z,19.57
2019-02-24T22:27:52.509Z,20.48
2019-02-24T22:30:22.897Z,22.10
2019-02-24T22:32:52.241Z,23.77
2019-02-24T22:35:21.574Z,21.15
2019-02-24T22:37:50.919Z,20.10
2019-02-24T22:40:20.342Z,20.92
2019-02-24T22:42:49.928Z,22.37
2019-02-24T22:45:20.272Z,22.10
2019-02-24T22:47:49.784Z,22.05
2019-02-24T22:50:19.117Z,26.65
2019-02-24T22:52:48.494Z,25.92
2019-02-24T22:55:19.009Z,24.55
2019-02-24T22:57:48.341Z,27.77
2019-02-24T23:00:52.345Z,30.48
2019-02-24T23:03:32.029Z,24.77
2019-02-24T23:06:01.606Z,27.85
2019-02-24T23:08:30.942Z,23.57
2019-02-24T23:11:00.276Z,24.32
2019-02-24T23:13:29.619Z,25.40
2019-02-24T23:15:58.991Z,26.73
2019-02-24T23:18:28.341Z,25.60
2019-02-24T23:20:57.701Z,25.72
2019-02-24T23:23:27.038Z,23.83
2019-02-24T23:25:56.367Z,26.80
2019-02-24T23:28:26.094Z,27.42
2019-02-24T23:30:55.501Z,23.87
2019-02-24T23:33:24.835Z,31.02
2019-02-24T23:35:54.166Z,31.02
2019-02-24T23:38:23.500Z,24.98
2019-02-24T23:40:53.117Z,29.27
2019-02-24T23:43:22.456Z,27.52
2019-02-24T23:45:51.800Z,33.25
2019-02-24T23:48:21.121Z,28.75
2019-02-24T23:50:50.469Z,26.07
2019-02-24T23:53:19.799Z,27.65
2019-02-24T23:55:49.374Z,34.13
2019-02-24T23:58:18.714Z,30.40
